Time;durP1;ratioP1;P1;durP2;ratioP2;P2;SDS_P1;SDS_P2;PMS_P1;PMS_P2;Temp;Humidity;BMP_temperature;BMP_pressure;BME280_temperature;BME280_humidity;BME280_pressure;Samples;Min_cycle;Max_cycle;Signal;HPM_P1;HPM_P2
2022/06/09 00:01:32;;;;;;;6.10;4.43;;;15.80;99.90;;;;;;5012419;28;20460;-73
2022/06/09 00:04:05;;;;;;;8.63;3.63;;;15.70;99.90;;;;;;5012604;28;20963;-71
2022/06/09 00:06:35;;;;;;;7.07;3.77;;;15.70;99.90;;;;;;5009927;28;21023;-74
2022/06/09 00:09:05;;;;;;;3.70;3.33;;;15.70;99.90;;;;;;5019237;28;20461;-71
2022/06/09 00:11:34;;;;;;;4.10;3.00;;;15.70;99.90;;;;;;5013954;28;20567;-74
2022/06/09 00:14:01;;;;;;;7.90;3.93;;;15.80;99.90;;;;;;5015799;28;20532;-71
2022/06/09 00:16:28;;;;;;;7.60;3.10;;;15.70;99.90;;;;;;5008987;28;20579;-72
2022/06/09 00:18:55;;;;;;;4.67;3.57;;;15.80;99.90;;;;;;5009220;28;20461;-71
2022/06/09 00:21:23;;;;;;;5.20;3.27;;;15.70;99.90;;;;;;5013530;28;20531;-72
2022/06/09 00:23:50;;;;;;;7.30;4.63;;;15.70;99.90;;;;;;5010810;28;20599;-73
2022/06/09 00:26:17;;;;;;;7.80;4.67;;;15.60;99.90;;;;;;5012707;28;20457;-73
2022/06/09 00:28:44;;;;;;;6.77;3.83;;;15.70;99.90;;;;;;5014430;28;20449;-71
2022/06/09 00:31:11;;;;;;;11.67;4.03;;;15.80;99.90;;;;;;5017599;28;20968;-71
2022/06/09 00:33:38;;;;;;;6.10;3.50;;;15.70;99.90;;;;;;5007971;28;20476;-73
2022/06/09 00:36:05;;;;;;;7.83;3.80;;;15.70;99.90;;;;;;5013330;28;20484;-72
2022/06/09 00:38:33;;;;;;;8.07;4.27;;;15.80;99.90;;;;;;5010179;28;20465;-73
2022/06/09 00:41:02;;;;;;;5.33;3.47;;;15.90;99.90;;;;;;5012562;28;20451;-72
2022/06/09 00:43:29;;;;;;;5.73;3.37;;;15.90;99.90;;;;;;5018152;28;20498;-72
2022/06/09 00:46:10;;;;;;;4.77;3.43;;;15.90;99.90;;;;;;5011384;28;20461;-72
2022/06/09 00:48:43;;;;;;;4.87;3.23;;;15.90;99.90;;;;;;5008502;28;20522;-72
2022/06/09 00:51:27;;;;;;;9.73;3.80;;;15.90;99.90;;;;;;5014812;28;20457;-72
2022/06/09 00:54:02;;;;;;;5.20;4.13;;;15.90;99.90;;;;;;5013858;28;20584;-72
2022/06/09 00:56:29;;;;;;;4.77;3.33;;;15.70;99.90;;;;;;5011873;28;21134;-73
2022/06/09 00:58:57;;;;;;;4.10;3.70;;;15.60;99.90;;;;;;5013527;28;20526;-72
2022/06/09 01:01:25;;;;;;;4.73;3.50;;;15.50;99.90;;;;;;5008096;28;20837;-72
2022/06/09 01:03:55;;;;;;;8.47;4.43;;;15.50;99.90;;;;;;5014409;28;20481;-74
2022/06/09 01:06:26;;;;;;;8.60;3.20;;;15.50;99.90;;;;;;5017478;28;20830;-72
2022/06/09 01:09:01;;;;;;;5.30;3.30;;;15.40;99.90;;;;;;5014347;28;20555;-72
2022/06/09 01:11:28;;;;;;;7.57;4.70;;;15.50;99.90;;;;;;5023835;28;20456;-73
2022/06/09 01:13:58;;;;;;;7.53;4.17;;;15.60;99.90;;;;;;5017947;28;21134;-73
2022/06/09 01:16:41;;;;;;;5.60;2.87;;;15.60;99.90;;;;;;5014291;28;20981;-72
2022/06/09 01:19:24;;;;;;;5.33;3.10;;;15.50;99.90;;;;;;5020938;28;20459;-73
2022/06/09 01:22:25;;;;;;;7.47;4.30;;;15.60;99.90;;;;;;5008068;28;20473;-72
2022/06/09 01:25:28;;;;;;;7.70;3.13;;;15.60;99.90;;;;;;5022178;28;20472;-72
2022/06/09 01:28:25;;;;;;;6.13;2.97;;;15.60;99.90;;;;;;5014285;28;20469;-71
2022/06/09 01:30:59;;;;;;;15.43;4.00;;;15.70;99.90;;;;;;5011164;28;20460;-73
2022/06/09 01:33:34;;;;;;;5.17;2.90;;;15.70;99.90;;;;;;5010454;28;20481;-73
2022/06/09 01:36:08;;;;;;;4.30;2.50;;;15.70;99.90;;;;;;5006232;28;21012;-72
2022/06/09 01:38:46;;;;;;;4.80;2.80;;;15.80;99.90;;;;;;5009341;28;20592;-73
2022/06/09 01:41:14;;;;;;;4.53;2.67;;;15.80;99.90;;;;;;5013867;28;20503;-74
2022/06/09 01:43:41;;;;;;;4.60;3.33;;;15.80;99.90;;;;;;5008099;28;20480;-74
2022/06/09 01:46:14;;;;;;;4.13;2.33;;;15.80;99.90;;;;;;5008599;28;20551;-74
2022/06/09 01:48:41;;;;;;;3.10;2.77;;;15.80;99.90;;;;;;5008460;28;20530;-73
2022/06/09 01:51:11;;;;;;;4.80;2.60;;;15.70;99.90;;;;;;5012831;28;20443;-72
2022/06/09 01:53:42;;;;;;;5.73;3.07;;;15.70;99.90;;;;;;5012172;28;20460;-71
2022/06/09 01:56:15;;;;;;;7.97;3.30;;;15.60;99.90;;;;;;5009158;28;20511;-72
2022/06/09 01:58:45;;;;;;;6.40;2.73;;;15.70;99.90;;;;;;5012518;28;20457;-71
2022/06/09 02:01:16;;;;;;;6.83;3.07;;;15.80;99.90;;;;;;5009280;28;20459;-71
2022/06/09 02:03:47;;;;;;;7.53;2.70;;;15.80;99.90;;;;;;5017779;28;20567;-73
2022/06/09 02:06:15;;;;;;;4.77;2.47;;;15.70;99.90;;;;;;5013029;28;20448;-74
2022/06/09 02:08:42;;;;;;;5.70;2.77;;;15.70;99.90;;;;;;5017947;28;20438;-72
2022/06/09 02:11:13;;;;;;;6.30;2.57;;;15.70;99.90;;;;;;5012591;28;20468;-73
2022/06/09 02:13:44;;;;;;;17.13;3.27;;;15.70;99.90;;;;;;5017298;28;20484;-71
2022/06/09 02:16:16;;;;;;;7.00;2.57;;;15.70;99.90;;;;;;5015014;28;20480;-72
2022/06/09 02:18:46;;;;;;;6.63;2.90;;;15.80;99.90;;;;;;5013544;28;20487;-72
2022/06/09 02:21:16;;;;;;;7.63;2.70;;;15.80;99.90;;;;;;5012797;28;20463;-70
2022/06/09 02:23:44;;;;;;;6.00;2.87;;;15.80;99.90;;;;;;5011074;28;20480;-70
2022/06/09 02:26:10;;;;;;;9.57;2.40;;;15.70;99.90;;;;;;5016274;28;20463;-69
2022/06/09 02:28:37;;;;;;;4.27;2.27;;;15.70;99.90;;;;;;5012572;28;20457;-71
2022/06/09 02:31:04;;;;;;;5.80;2.90;;;15.60;99.90;;;;;;5015706;28;20567;-71
2022/06/09 02:33:32;;;;;;;2.10;1.87;;;15.60;99.90;;;;;;5015139;28;20481;-72
2022/06/09 02:35:59;;;;;;;8.40;1.90;;;15.50;99.90;;;;;;5012486;28;20489;-72
2022/06/09 02:38:26;;;;;;;7.20;3.47;;;15.50;99.90;;;;;;5017268;28;20775;-71
2022/06/09 02:40:54;;;;;;;3.90;2.43;;;15.50;99.90;;;;;;5016355;28;20985;-70
2022/06/09 02:43:21;;;;;;;8.03;2.30;;;15.60;99.90;;;;;;5016219;28;20485;-73
2022/06/09 02:45:48;;;;;;;3.63;2.50;;;15.60;99.90;;;;;;5014968;28;20970;-72
2022/06/09 02:48:16;;;;;;;5.17;2.53;;;15.60;99.90;;;;;;5022819;28;20460;-71
2022/06/09 02:50:46;;;;;;;2.67;2.47;;;15.50;99.90;;;;;;5023344;28;20540;-71
2022/06/09 02:53:13;;;;;;;6.27;3.00;;;15.50;99.90;;;;;;5017864;28;20508;-70
2022/06/09 02:55:40;;;;;;;3.67;1.93;;;15.40;99.90;;;;;;5014535;28;21229;-71
2022/06/09 02:58:07;;;;;;;4.33;3.07;;;15.40;99.90;;;;;;5012245;28;20480;-72
2022/06/09 03:00:34;;;;;;;3.80;2.20;;;15.40;99.90;;;;;;5015044;28;20464;-71
2022/06/09 03:03:02;;;;;;;9.10;2.90;;;15.40;99.90;;;;;;5020511;28;20499;-71
2022/06/09 03:05:31;;;;;;;6.60;2.07;;;15.40;99.90;;;;;;5010729;28;20446;-71
2022/06/09 03:08:00;;;;;;;3.97;2.10;;;15.40;99.90;;;;;;5008533;28;20544;-71
2022/06/09 03:10:27;;;;;;;6.27;3.10;;;15.40;99.90;;;;;;5009503;28;20447;-71
2022/06/09 03:12:54;;;;;;;12.00;2.57;;;15.40;99.90;;;;;;5026605;28;20486;-71
2022/06/09 03:15:24;;;;;;;6.87;2.33;;;15.40;99.90;;;;;;5004088;28;20466;-71
2022/06/09 03:17:51;;;;;;;5.43;2.70;;;15.40;99.90;;;;;;5007731;28;20469;-71
2022/06/09 03:20:21;;;;;;;7.30;2.67;;;15.40;99.90;;;;;;5011925;28;20431;-71
2022/06/09 03:22:48;;;;;;;5.87;2.30;;;15.40;99.90;;;;;;5023279;28;20998;-71
2022/06/09 03:25:16;;;;;;;3.53;2.13;;;15.40;99.90;;;;;;5015976;28;20457;-74
2022/06/09 03:27:43;;;;;;;6.63;2.50;;;15.40;99.90;;;;;;5010646;28;20488;-72
2022/06/09 03:30:12;;;;;;;5.30;2.60;;;15.30;99.90;;;;;;5018273;28;20778;-71
2022/06/09 03:32:38;;;;;;;7.13;2.23;;;15.30;99.90;;;;;;5019535;28;20480;-71
2022/06/09 03:35:06;;;;;;;5.93;2.50;;;15.30;99.90;;;;;;5017468;28;20616;-72
2022/06/09 03:37:33;;;;;;;11.03;3.50;;;15.30;99.90;;;;;;5019929;28;20476;-71
2022/06/09 03:40:00;;;;;;;6.47;3.10;;;15.20;99.90;;;;;;5020444;28;20627;-73
2022/06/09 03:42:28;;;;;;;6.63;3.10;;;15.30;99.90;;;;;;5005886;28;20486;-72
2022/06/09 03:44:55;;;;;;;15.77;3.77;;;15.40;99.90;;;;;;5011966;28;20544;-71
2022/06/09 03:47:22;;;;;;;8.63;3.20;;;15.40;99.90;;;;;;5015455;28;20479;-72
2022/06/09 03:49:49;;;;;;;6.30;3.57;;;15.40;99.90;;;;;;5022586;28;20465;-70
2022/06/09 03:52:16;;;;;;;6.73;3.33;;;15.30;99.90;;;;;;5019763;28;20464;-71
2022/06/09 03:54:43;;;;;;;5.83;3.80;;;15.30;99.90;;;;;;5010274;28;20560;-72
2022/06/09 03:57:10;;;;;;;7.73;3.17;;;15.20;99.90;;;;;;5022160;28;20491;-72
2022/06/09 03:59:38;;;;;;;6.90;3.20;;;15.20;99.90;;;;;;5026688;28;20449;-71
2022/06/09 04:02:05;;;;;;;10.03;4.23;;;15.20;99.90;;;;;;5024916;28;20456;-71
2022/06/09 04:04:32;;;;;;;8.50;4.10;;;15.20;99.90;;;;;;5012338;28;20481;-71
2022/06/09 04:06:59;;;;;;;6.33;2.90;;;15.20;99.90;;;;;;5016511;28;20481;-71
2022/06/09 04:09:26;;;;;;;18.90;3.70;;;15.20;99.90;;;;;;5015190;28;20480;-73
2022/06/09 04:11:53;;;;;;;6.10;3.70;;;15.10;99.90;;;;;;5014814;28;20467;-71
2022/06/09 04:14:20;;;;;;;8.90;3.83;;;15.20;99.90;;;;;;5031936;22;21004;-68
2022/06/09 04:16:48;;;;;;;7.20;3.17;;;15.30;99.90;;;;;;5038265;28;21020;-68
2022/06/09 04:19:17;;;;;;;6.27;3.40;;;15.20;99.90;;;;;;5038877;28;20462;-69
2022/06/09 04:21:44;;;;;;;7.43;3.50;;;15.20;99.90;;;;;;5042429;28;20459;-69
2022/06/09 04:24:12;;;;;;;7.50;3.83;;;15.30;99.90;;;;;;5038070;28;20490;-69
2022/06/09 04:26:41;;;;;;;7.17;4.20;;;15.40;99.90;;;;;;5038269;28;20968;-68
2022/06/09 04:29:12;;;;;;;10.50;7.80;;;15.40;99.90;;;;;;5042519;28;20462;-68
2022/06/09 04:31:39;;;;;;;8.33;5.87;;;15.40;99.90;;;;;;5040274;28;20474;-68
2022/06/09 04:34:08;;;;;;;10.63;4.73;;;15.40;99.90;;;;;;5037111;28;20482;-69
2022/06/09 04:36:35;;;;;;;8.47;4.20;;;15.30;99.90;;;;;;5039372;28;20872;-69
2022/06/09 04:39:03;;;;;;;13.00;7.47;;;15.40;99.90;;;;;;5030539;28;20515;-70
2022/06/09 04:41:30;;;;;;;11.53;5.60;;;15.40;99.90;;;;;;5035047;28;20460;-69
2022/06/09 04:43:58;;;;;;;12.33;5.30;;;15.40;99.90;;;;;;5034446;28;20992;-68
2022/06/09 04:46:25;;;;;;;11.47;6.50;;;15.50;99.90;;;;;;5034748;28;20461;-68
2022/06/09 04:48:53;;;;;;;10.83;5.60;;;15.50;99.90;;;;;;5026058;28;20485;-70
2022/06/09 04:51:22;;;;;;;10.90;5.07;;;15.60;99.90;;;;;;5041782;28;20590;-70
2022/06/09 04:53:50;;;;;;;15.30;7.00;;;15.50;99.90;;;;;;5041669;28;20459;-68
2022/06/09 04:56:18;;;;;;;22.90;9.50;;;15.40;99.90;;;;;;5045468;28;20506;-71
2022/06/09 04:58:46;;;;;;;12.33;5.90;;;15.40;99.90;;;;;;5040098;28;20463;-70
2022/06/09 05:01:17;;;;;;;13.30;6.00;;;15.40;99.90;;;;;;5041524;28;20478;-70
2022/06/09 05:03:44;;;;;;;11.77;7.23;;;15.40;99.90;;;;;;5038445;28;20506;-70
2022/06/09 05:06:11;;;;;;;13.80;6.23;;;15.50;99.90;;;;;;5045303;28;20548;-69
2022/06/09 05:08:40;;;;;;;13.57;8.43;;;15.50;99.90;;;;;;5045392;28;20454;-70
2022/06/09 05:11:07;;;;;;;11.50;7.10;;;15.40;99.90;;;;;;5038251;28;20458;-70
2022/06/09 05:13:34;;;;;;;13.43;8.13;;;15.50;99.90;;;;;;5044325;28;20478;-67
2022/06/09 05:16:01;;;;;;;20.80;7.00;;;15.60;99.90;;;;;;5045956;28;20440;-70
2022/06/09 05:18:30;;;;;;;13.10;7.30;;;15.70;99.90;;;;;;5044618;28;20440;-69
2022/06/09 05:20:58;;;;;;;18.57;9.27;;;15.60;99.90;;;;;;5042720;28;20468;-70
2022/06/09 05:23:26;;;;;;;16.60;8.70;;;15.60;99.90;;;;;;5043815;28;20464;-69
2022/06/09 05:25:56;;;;;;;18.33;8.40;;;15.60;99.90;;;;;;5043487;28;20950;-70
2022/06/09 05:28:25;;;;;;;8.67;5.10;;;15.70;99.90;;;;;;5041290;28;20460;-69
2022/06/09 05:30:52;;;;;;;24.63;9.67;;;15.70;99.90;;;;;;5040625;28;20762;-69
2022/06/09 05:33:19;;;;;;;12.23;7.60;;;15.70;99.90;;;;;;5043436;28;20581;-69
2022/06/09 05:35:46;;;;;;;14.23;6.47;;;15.80;99.90;;;;;;5043138;28;21046;-69
2022/06/09 05:46:31;;;;;;;13.77;9.13;;;16.30;99.90;;;;;;5045670;28;20493;-69
2022/06/09 05:48:57;;;;;;;18.87;8.50;;;16.30;99.90;;;;;;5048891;28;20963;-69
2022/06/09 05:51:24;;;;;;;20.43;9.67;;;16.30;99.90;;;;;;5043084;28;20777;-68
2022/06/09 05:53:51;;;;;;;19.67;9.83;;;16.30;99.90;;;;;;5048357;28;20695;-68
2022/06/09 05:56:20;;;;;;;20.17;8.50;;;16.40;99.90;;;;;;5046909;28;20795;-67
2022/06/09 05:58:47;;;;;;;15.47;9.80;;;16.50;99.90;;;;;;5039878;28;20452;-69
2022/06/09 06:01:14;;;;;;;21.00;8.10;;;16.70;99.90;;;;;;5045250;28;20760;-69
2022/06/09 06:03:42;;;;;;;17.20;9.10;;;16.80;99.90;;;;;;5047486;28;21016;-69
2022/06/09 06:08:54;;;;;;;16.57;10.70;;;16.80;99.90;;;;;;5047368;28;20427;-69
2022/06/09 06:11:23;;;;;;;14.70;8.97;;;16.80;99.90;;;;;;5046241;28;20554;-69
2022/06/09 06:13:50;;;;;;;18.10;10.20;;;16.70;99.90;;;;;;5042440;28;20493;-69
2022/06/09 06:16:17;;;;;;;14.90;8.53;;;16.70;99.90;;;;;;5043587;28;21003;-68
2022/06/09 06:18:43;;;;;;;11.07;6.87;;;16.80;99.90;;;;;;5047789;28;20451;-69
2022/06/09 06:21:10;;;;;;;20.50;8.23;;;16.80;99.90;;;;;;5047438;28;20947;-69
2022/06/09 06:23:37;;;;;;;26.23;11.03;;;16.80;99.90;;;;;;5046688;28;20909;-69
2022/06/09 06:26:04;;;;;;;23.00;10.73;;;16.90;99.90;;;;;;5048276;28;20466;-69
2022/06/09 06:28:32;;;;;;;18.83;9.37;;;17.00;99.90;;;;;;5048751;28;20456;-69
2022/06/09 06:30:59;;;;;;;18.10;8.80;;;17.20;99.90;;;;;;5042302;28;20533;-69
2022/06/09 06:33:27;;;;;;;16.93;9.73;;;17.20;99.90;;;;;;5045189;28;20450;-69
2022/06/09 06:35:54;;;;;;;20.40;10.37;;;17.20;99.90;;;;;;5048336;28;20455;-69
2022/06/09 06:38:21;;;;;;;15.03;9.10;;;17.20;99.90;;;;;;5045924;28;20487;-69
2022/06/09 06:40:49;;;;;;;14.30;8.70;;;17.40;99.90;;;;;;5048203;28;20475;-69
2022/06/09 06:43:16;;;;;;;18.30;8.53;;;17.50;99.90;;;;;;5047129;28;20833;-69
2022/06/09 06:45:44;;;;;;;19.37;10.13;;;17.30;99.90;;;;;;5047775;28;20523;-68
2022/06/09 06:48:11;;;;;;;16.03;10.53;;;17.30;99.90;;;;;;5048098;28;20448;-69
2022/06/09 06:50:38;;;;;;;22.33;9.73;;;17.30;99.90;;;;;;5045633;28;20779;-69
2022/06/09 06:53:05;;;;;;;20.40;12.37;;;17.50;99.90;;;;;;5047082;28;20662;-68
2022/06/09 06:55:32;;;;;;;17.43;10.10;;;17.70;99.90;;;;;;5044681;28;20492;-69
2022/06/09 06:57:59;;;;;;;22.53;10.30;;;17.80;99.90;;;;;;5044691;28;20570;-68
2022/06/09 07:00:26;;;;;;;16.27;8.70;;;17.60;99.90;;;;;;5043582;28;20598;-70
2022/06/09 07:02:57;;;;;;;18.10;11.73;;;17.80;99.90;;;;;;5043063;28;20507;-70
2022/06/09 07:05:24;;;;;;;15.57;9.20;;;17.70;99.90;;;;;;5045159;28;20440;-69
2022/06/09 07:07:51;;;;;;;16.97;8.93;;;17.90;99.90;;;;;;5043991;28;20456;-69
2022/06/09 07:10:19;;;;;;;16.27;8.60;;;18.20;99.90;;;;;;5047497;28;20447;-68
2022/06/09 07:12:46;;;;;;;22.70;10.27;;;18.20;99.90;;;;;;5046744;28;20449;-68
2022/06/09 07:15:14;;;;;;;21.47;11.63;;;18.20;99.90;;;;;;5041694;28;20498;-69
2022/06/09 07:17:41;;;;;;;14.60;10.17;;;18.20;99.90;;;;;;5040657;28;20968;-69
2022/06/09 07:20:13;;;;;;;21.23;11.03;;;17.90;99.90;;;;;;5040477;28;20741;-69
2022/06/09 07:22:40;;;;;;;23.73;11.27;;;17.70;99.90;;;;;;5047425;28;20541;-69
2022/06/09 07:25:08;;;;;;;20.57;12.77;;;17.60;99.90;;;;;;5045601;28;21030;-69
2022/06/09 07:27:35;;;;;;;20.50;11.73;;;17.40;99.90;;;;;;5046235;28;20441;-69
2022/06/09 07:30:02;;;;;;;17.10;10.33;;;17.30;99.90;;;;;;5042762;28;20555;-69
2022/06/09 07:32:29;;;;;;;18.80;9.53;;;17.00;99.90;;;;;;5044970;28;20489;-69
2022/06/09 07:34:56;;;;;;;14.43;10.47;;;17.00;99.90;;;;;;5044847;28;20468;-69
2022/06/09 07:37:24;;;;;;;23.13;10.27;;;16.90;99.90;;;;;;5043093;28;20480;-69
2022/06/09 07:39:51;;;;;;;25.63;11.73;;;16.90;99.90;;;;;;5043230;28;21201;-69
2022/06/09 07:42:18;;;;;;;22.50;11.60;;;17.00;99.90;;;;;;5047256;28;20487;-68
2022/06/09 07:44:46;;;;;;;15.37;10.57;;;17.00;99.90;;;;;;5045043;28;20959;-69
2022/06/09 07:47:13;;;;;;;22.83;10.50;;;17.30;99.90;;;;;;5044674;28;20897;-69
2022/06/09 07:49:40;;;;;;;19.07;9.93;;;17.80;99.90;;;;;;5047128;28;20440;-69
2022/06/09 07:52:07;;;;;;;16.27;8.90;;;18.50;99.90;;;;;;5045879;28;20478;-69
2022/06/09 07:54:35;;;;;;;15.97;9.87;;;18.60;99.90;;;;;;5045608;28;20953;-69
2022/06/09 07:57:02;;;;;;;14.00;9.40;;;18.50;99.90;;;;;;5045006;28;20479;-69
2022/06/09 07:59:29;;;;;;;14.20;7.70;;;18.50;99.90;;;;;;5044804;28;20455;-69
2022/06/09 08:01:56;;;;;;;14.53;11.77;;;18.40;99.90;;;;;;5046549;28;20499;-69
2022/06/09 08:04:22;;;;;;;16.00;9.23;;;18.30;99.90;;;;;;5039959;28;20463;-69
2022/06/09 08:06:50;;;;;;;15.97;10.10;;;18.30;99.90;;;;;;5044406;28;20452;-69
2022/06/09 08:09:17;;;;;;;21.00;9.17;;;18.40;99.90;;;;;;5046919;28;20448;-69
2022/06/09 08:11:47;;;;;;;16.00;9.70;;;18.50;99.90;;;;;;5048628;28;20458;-70
2022/06/09 08:14:14;;;;;;;18.70;9.67;;;18.60;99.90;;;;;;5043282;28;20515;-70
2022/06/09 08:16:42;;;;;;;18.83;10.00;;;18.60;99.90;;;;;;5046040;28;20983;-70
2022/06/09 08:19:09;;;;;;;14.70;10.43;;;18.80;99.90;;;;;;5044014;28;20502;-69
2022/06/09 08:21:36;;;;;;;16.90;10.30;;;18.90;99.90;;;;;;5044492;28;20437;-70
2022/06/09 08:24:03;;;;;;;14.30;10.10;;;19.00;99.90;;;;;;5041081;28;20482;-69
2022/06/09 08:26:30;;;;;;;19.57;11.70;;;18.90;99.90;;;;;;5043800;28;20539;-70
2022/06/09 08:28:58;;;;;;;16.43;10.27;;;19.00;99.90;;;;;;5046165;28;20615;-72
2022/06/09 08:31:25;;;;;;;21.37;11.20;;;19.20;99.90;;;;;;5038229;28;20948;-69
2022/06/09 08:33:52;;;;;;;13.83;9.60;;;18.80;99.90;;;;;;5046413;28;20483;-70
2022/06/09 08:36:19;;;;;;;15.53;11.37;;;18.90;99.90;;;;;;5044994;28;20751;-69
2022/06/09 08:38:46;;;;;;;14.87;8.93;;;18.80;99.90;;;;;;5038306;28;20480;-69
2022/06/09 08:41:29;;;;;;;13.50;7.00;;;18.80;99.90;;;;;;5045758;28;20938;-69
2022/06/09 08:44:06;;;;;;;16.20;9.10;;;19.00;99.90;;;;;;5044406;28;20830;-69
2022/06/09 08:46:43;;;;;;;13.47;8.50;;;19.40;99.90;;;;;;5037841;28;21040;-68
2022/06/09 08:49:40;;;;;;;10.30;7.20;;;19.70;99.90;;;;;;5037941;28;20460;-69
2022/06/09 08:52:22;;;;;;;11.80;7.40;;;20.00;99.90;;;;;;5044542;28;20448;-69
2022/06/09 08:54:50;;;;;;;10.23;7.00;;;20.20;99.90;;;;;;5044498;28;20476;-70
2022/06/09 08:57:21;;;;;;;16.33;9.80;;;20.60;99.90;;;;;;5044268;28;20546;-72
2022/06/09 08:59:56;;;;;;;10.13;7.30;;;21.00;99.90;;;;;;5040683;28;20456;-68
2022/06/09 09:02:33;;;;;;;8.83;7.90;;;21.20;99.90;;;;;;5043796;28;20518;-69
2022/06/09 09:05:11;;;;;;;11.47;8.60;;;21.50;99.90;;;;;;5047912;28;20494;-69
2022/06/09 09:07:43;;;;;;;17.63;8.70;;;22.50;99.90;;;;;;5048084;28;20479;-68
2022/06/09 09:10:21;;;;;;;14.60;9.00;;;22.80;99.90;;;;;;5048097;28;20444;-69
2022/06/09 09:13:01;;;;;;;12.20;9.10;;;22.70;99.90;;;;;;5042332;28;20470;-68
2022/06/09 09:15:34;;;;;;;18.43;8.80;;;22.70;99.90;;;;;;5041396;28;20464;-69
2022/06/09 09:18:21;;;;;;;10.80;7.60;;;22.70;99.90;;;;;;5036933;28;20480;-69
2022/06/09 09:20:58;;;;;;;9.20;7.20;;;23.90;99.90;;;;;;5042667;28;20966;-69
2022/06/09 09:23:32;;;;;;;9.57;7.30;;;24.40;99.90;;;;;;5044484;28;20913;-69
2022/06/09 09:26:07;;;;;;;8.17;7.10;;;25.40;99.90;;;;;;5044379;28;20451;-69
2022/06/09 09:28:45;;;;;;;12.40;7.17;;;25.60;99.90;;;;;;5043852;28;20839;-68
2022/06/09 09:31:22;;;;;;;7.50;5.90;;;23.80;99.90;;;;;;5041273;28;20440;-70
2022/06/09 09:33:49;;;;;;;9.83;6.43;;;24.20;99.90;;;;;;5042529;28;20609;-69
2022/06/09 09:36:22;;;;;;;9.90;5.80;;;24.20;99.90;;;;;;5045207;28;20996;-70
2022/06/09 09:38:54;;;;;;;8.03;5.40;;;23.70;99.90;;;;;;5039702;28;20586;-69
2022/06/09 09:41:28;;;;;;;9.77;4.70;;;24.10;99.90;;;;;;5044364;28;20834;-70
2022/06/09 09:43:56;;;;;;;8.77;6.37;;;25.00;99.90;;;;;;5043208;28;20936;-70
2022/06/09 09:46:30;;;;;;;7.03;5.27;;;26.10;99.90;;;;;;5045437;28;20498;-69
2022/06/09 09:49:00;;;;;;;10.27;5.93;;;27.20;99.90;;;;;;5042170;28;20440;-69
2022/06/09 09:51:34;;;;;;;7.70;5.57;;;27.90;99.90;;;;;;5043609;28;20444;-69
2022/06/09 09:54:09;;;;;;;12.90;6.13;;;28.20;99.90;;;;;;5042934;28;20479;-68
2022/06/09 09:56:38;;;;;;;7.33;4.77;;;27.40;99.90;;;;;;5044533;28;20924;-68
2022/06/09 09:59:19;;;;;;;6.57;5.50;;;26.60;99.90;;;;;;5041120;28;20857;-68
2022/06/09 10:10:14;;;;;;;5.00;4.13;;;25.40;99.90;;;;;;5044404;28;20432;-69
2022/06/09 10:12:42;;;;;;;5.00;4.60;;;25.60;99.90;;;;;;5042293;28;20816;-70
2022/06/09 10:15:17;;;;;;;5.63;4.70;;;27.10;99.90;;;;;;5064821;23;20895;-72
2022/06/09 10:17:55;;;;;;;6.00;4.97;;;27.40;99.90;;;;;;5061748;28;20978;-72
2022/06/09 10:20:30;;;;;;;10.20;5.47;;;27.80;99.90;;;;;;5064386;28;20443;-71
2022/06/09 10:23:04;;;;;;;5.70;5.07;;;27.80;99.90;;;;;;5063627;28;20453;-72
2022/06/09 10:25:36;;;;;;;5.17;4.67;;;27.00;99.90;;;;;;5063747;28;20466;-72
2022/06/09 10:28:25;;;;;;;4.93;3.97;;;26.30;99.90;;;;;;5069750;28;20437;-72
2022/06/09 10:31:00;;;;;;;6.27;4.97;;;25.30;99.90;;;;;;5068280;28;20443;-74
2022/06/09 10:33:34;;;;;;;9.07;7.63;;;24.10;99.90;;;;;;5069669;28;20490;-73
2022/06/09 10:36:07;;;;;;;7.67;5.83;;;22.90;99.90;;;;;;5072149;28;20614;-72
2022/06/09 10:38:37;;;;;;;10.97;5.90;;;22.20;99.90;;;;;;5072793;28;20493;-72
2022/06/09 10:41:13;;;;;;;7.37;6.30;;;21.60;99.90;;;;;;5077319;28;20452;-72
2022/06/09 10:43:45;;;;;;;8.60;7.30;;;21.40;99.90;;;;;;5080314;28;20471;-72
2022/06/09 10:46:20;;;;;;;8.97;7.33;;;21.30;99.90;;;;;;5083477;28;20470;-71
2022/06/09 10:57:30;;;;;;;7.93;6.50;;;25.20;99.90;;;;;;5066931;28;20963;-72
2022/06/09 11:00:02;;;;;;;6.97;6.00;;;25.70;99.90;;;;;;5068473;28;20588;-75
2022/06/09 11:02:32;;;;;;;9.70;8.60;;;26.00;99.90;;;;;;5069219;28;20966;-73
2022/06/09 11:05:01;;;;;;;11.53;8.37;;;26.70;99.90;;;;;;5067430;28;20562;-72
2022/06/09 11:07:53;;;;;;;9.50;8.10;;;27.00;99.90;;;;;;5065455;28;20982;-74
2022/06/09 11:10:33;;;;;;;12.40;7.43;;;26.90;99.90;;;;;;5067658;28;20534;-72
2022/06/09 11:13:34;;;;;;;6.67;4.57;;;25.80;99.90;;;;;;5069014;28;20493;-72
2022/06/09 11:16:07;;;;;;;3.10;2.10;;;23.50;99.90;;;;;;5062132;28;20455;-72
2022/06/09 11:18:42;;;;;;;14.40;2.87;;;21.30;99.90;;;;;;5066595;28;20532;-74
2022/06/09 11:21:17;;;;;;;8.23;2.50;;;20.10;99.90;;;;;;5070070;28;20463;-72
2022/06/09 11:24:13;;;;;;;2.20;2.00;;;19.40;99.90;;;;;;5067742;28;20478;-73
2022/06/09 11:26:50;;;;;;;4.80;2.87;;;18.80;99.90;;;;;;5073789;28;20451;-72
2022/06/09 11:29:37;;;;;;;3.83;3.30;;;18.10;99.90;;;;;;5068985;28;21032;-74
2022/06/09 11:32:12;;;;;;;4.20;3.70;;;18.00;99.90;;;;;;5064958;28;20439;-72
2022/06/09 11:34:55;;;;;;;7.00;4.17;;;18.20;99.90;;;;;;5066420;28;20516;-74
2022/06/09 11:37:36;;;;;;;5.77;3.80;;;18.60;99.90;;;;;;5067828;28;20431;-72
2022/06/09 11:40:15;;;;;;;3.90;3.03;;;18.70;99.90;;;;;;5063496;28;20489;-72
2022/06/09 11:42:56;;;;;;;4.07;3.63;;;18.80;99.90;;;;;;5068700;28;20550;-72
2022/06/09 11:45:30;;;;;;;3.57;3.27;;;18.60;99.90;;;;;;5063420;28;20565;-73
2022/06/09 11:48:01;;;;;;;5.87;4.57;;;18.90;99.90;;;;;;5062631;28;20470;-71
2022/06/09 11:50:34;;;;;;;8.60;5.10;;;19.10;99.90;;;;;;5068008;28;20632;-72
2022/06/09 11:53:03;;;;;;;6.43;3.00;;;19.60;99.90;;;;;;5068296;28;20458;-72
2022/06/09 11:58:42;;;;;;;6.67;3.97;;;20.20;99.90;;;;;;5058796;28;20513;-70
2022/06/09 12:01:17;;;;;;;9.50;3.57;;;20.70;99.90;;;;;;5064915;28;20516;-73
2022/06/09 12:03:54;;;;;;;6.80;3.67;;;21.50;99.90;;;;;;5066298;28;20478;-72
2022/06/09 12:06:29;;;;;;;5.73;4.23;;;22.70;99.90;;;;;;5067844;28;20444;-72
2022/06/09 12:09:10;;;;;;;6.10;4.00;;;24.80;99.90;;;;;;5065721;28;20450;-72
2022/06/09 12:11:56;;;;;;;3.83;3.47;;;26.00;99.90;;;;;;5067181;28;20441;-73
2022/06/09 12:14:27;;;;;;;3.63;3.20;;;26.30;99.90;;;;;;5066546;28;20483;-73
2022/06/09 12:17:04;;;;;;;4.73;2.93;;;27.50;99.90;;;;;;5066368;28;20463;-73
2022/06/09 12:19:36;;;;;;;5.53;3.20;;;28.00;99.90;;;;;;5064735;28;22315;-72
2022/06/09 12:22:39;;;;;;;4.57;3.13;;;27.50;99.90;;;;;;5063652;28;20443;-74
2022/06/09 12:25:33;;;;;;;4.13;2.97;;;26.20;99.90;;;;;;5060654;28;20509;-72
2022/06/09 12:28:00;;;;;;;5.00;2.67;;;25.40;99.90;;;;;;5062548;28;20542;-72
2022/06/09 12:30:33;;;;;;;4.30;2.47;;;25.00;99.90;;;;;;5061986;28;20459;-75
2022/06/09 12:33:31;;;;;;;3.30;3.00;;;24.50;99.90;;;;;;5066314;28;20447;-74
2022/06/09 12:36:03;;;;;;;2.93;2.23;;;23.50;99.90;;;;;;5063761;28;20439;-72
2022/06/09 12:38:34;;;;;;;2.73;1.80;;;22.00;99.90;;;;;;5061199;28;20443;-72
2022/06/09 12:41:11;;;;;;;2.10;1.90;;;20.70;99.90;;;;;;5065559;28;20865;-76
2022/06/09 12:43:42;;;;;;;1.83;1.30;;;20.40;99.90;;;;;;5064335;28;20467;-72
2022/06/09 12:46:23;;;;;;;1.57;1.40;;;20.10;99.90;;;;;;5066095;28;20431;-72
2022/06/09 12:48:53;;;;;;;1.40;1.30;;;19.80;99.90;;;;;;5066886;28;20528;-71
2022/06/09 12:51:24;;;;;;;3.07;1.57;;;19.60;99.90;;;;;;5065983;28;20492;-71
2022/06/09 12:54:01;;;;;;;1.83;1.73;;;19.50;99.90;;;;;;5053973;28;20475;-71
2022/06/09 12:56:36;;;;;;;1.93;1.50;;;19.60;99.90;;;;;;5051033;28;20550;-74
2022/06/09 12:59:16;;;;;;;4.80;3.10;;;20.00;99.90;;;;;;5056965;28;21130;-72
2022/06/09 13:01:53;;;;;;;1.60;1.43;;;20.10;99.90;;;;;;5050901;28;20463;-71
2022/06/09 13:04:20;;;;;;;2.40;1.60;;;20.30;99.90;;;;;;5058030;28;20574;-74
2022/06/09 13:06:48;;;;;;;2.70;1.63;;;20.40;99.90;;;;;;5062101;28;20467;-72
2022/06/09 13:09:19;;;;;;;1.57;1.30;;;20.70;99.90;;;;;;5056683;28;20971;-72
2022/06/09 13:14:38;;;;;;;2.50;1.40;;;21.80;99.90;;;;;;5050394;28;20537;-74
2022/06/09 13:17:08;;;;;;;1.93;1.37;;;22.30;99.90;;;;;;5057030;28;20455;-74
2022/06/09 13:19:38;;;;;;;1.40;1.10;;;23.30;99.90;;;;;;5059508;28;20483;-72
2022/06/09 13:22:09;;;;;;;5.60;1.83;;;23.10;99.90;;;;;;5055105;28;20457;-72
2022/06/09 13:24:39;;;;;;;2.00;1.43;;;23.00;99.90;;;;;;5058749;28;20482;-74
2022/06/09 13:27:15;;;;;;;1.60;0.97;;;22.90;99.90;;;;;;5061015;28;20469;-73
2022/06/09 13:29:55;;;;;;;1.67;1.03;;;22.10;99.90;;;;;;5058869;28;20797;-74
2022/06/09 13:32:30;;;;;;;1.50;1.20;;;21.90;99.90;;;;;;5048590;28;20854;-72
2022/06/09 13:35:01;;;;;;;2.80;1.30;;;21.40;99.90;;;;;;5057916;28;20470;-72